CYGQ

Geraldton Greenstone Regional Airport

Geraldton, Ontario, Canada
METAR CYGQ 190900Z 00000KT 15SM FEW050 SCT240 02/01 A3010 RMK SC2CS2 SLP209
Observed Flight Rules
Sep-19 @ 09:00 UTC (31 minutes ago) Visual Flight Rules
Visibility Clouds
15 miles
  • Few at 5,000' AGL
  • Scattered at 24,000' AGL
Temperatures Readings
Current 2°C / 36°F
Dewpoint 1°C / 34°F
Humidity 93%
Altimeter 30.1" Hg
Pressure 1020.9 hPa
Elevation 351
METAR CYGQ 190900Z 00000KT 15SM FEW050 SCT240 02/01 A3010 RMK SC2CS2 SLP209
Observed Flight Rules
Sep-19 @ 09:00 UTC
(31 minutes ago)
VFR
Clouds
  • Few at 5,000' AGL
  • Scattered at 24,000' AGL
Temperature Dewpoint
2°C / 36°F 1°C / 34°F
Humidity Altimeter Pressure
93% 30.1" Hg 1020.9 hPa